Airfield :
LOGIN :

Register | Disclaimer

   EN    FR    IT 

 










Legend :    VFR   Marginal VFR   IFR   Intensive IFR   Very Intensive IFR
Visi :
Ceiling :
>= 8 km
>= 3000ft
5 to 8 km
1000 to 3000 ft
1500m to 5 km
500 to 1000 ft
800 to 1500m
200 to 500 ft
< 800m
< 200 ft
Symbols :   Thunderstorms  Fog  Heavy snow  Heavy precipitations  Wind > 20 kt
SIGMETs :     Misc.  Thunderstorms  Icing  Turbulence  Mountain Waves  Volcanic Ashes






- Airport Elevation : 288 ft
- IATA code : BZZ


EGVN - RAF Brize Norton

CURRENT METAR :
  • 120020Z 26007KT CAVOK 05/01 Q1000 NOSIG RMK BLU BLU

EXPIRED METARs :
  • 112350Z 26007KT CAVOK 05/02 Q1000 NOSIG
  • 112320Z 26006KT CAVOK 05/02 Q1000 NOSIG RMK BLU BLU
  • 112250Z 25006KT CAVOK 05/01 Q1001 NOSIG RMK BLU BLU
  • 112220Z 24004KT CAVOK 05/02 Q1001 NOSIG RMK BLU BLU
  • 112150Z 26006KT CAVOK 04/02 Q1001 NOSIG RMK BLU BLU

TAF TAF EGVN
Valid from the 12 at 00:00 until the 13 at 00:00 UTC


112243Z 1200/1224 25006KT 9999 FEW025
PROB30
TEMPO 1200/1206 SCT020
BECMG 1210/1213 BKN018
PROB30
TEMPO 1210/1217 28015G25KT 7000 RA
BECMG 1217/1220 FEW018
PROB30
TEMPO 1220/1224 SCT018



MET'MAP, your aeronautical weather chart ! - Copyright ORBIFLY December 2007 - Disclaimer

ORBIFLY MET'MAP TEAM :

Programming & Development : Alexandra Zaïnal
Concept & Development : Baudouin d'Aumeries
Co-Development & Prog : Marc-Olivier Méhu
Technical & hardware support : Manuel Goepfert

Contact : metmap@orbifly.com




SOURCES & CREDITS :

   NOAA